sensor_id;sensor_type;location;lat;lon;timestamp;pressure;altitude;pressure_sealevel;temperature;humidity
10992;BME280;5549;47.028;15.514;2023-04-28T00:02:04;96898.47;;;11.69;47.66
10992;BME280;5549;47.028;15.514;2023-04-28T00:04:34;96917.59;;;11.71;47.22
10992;BME280;5549;47.028;15.514;2023-04-28T00:07:03;96914.09;;;11.82;47.24
10992;BME280;5549;47.028;15.514;2023-04-28T00:09:31;96916.09;;;11.89;46.89
10992;BME280;5549;47.028;15.514;2023-04-28T00:12:00;96914.81;;;11.84;47.61
10992;BME280;5549;47.028;15.514;2023-04-28T00:14:32;96898.25;;;11.93;47.32
10992;BME280;5549;47.028;15.514;2023-04-28T00:16:59;96903.22;;;11.75;47.28
10992;BME280;5549;47.028;15.514;2023-04-28T00:19:28;96892.69;;;11.54;48.22
10992;BME280;5549;47.028;15.514;2023-04-28T00:21:55;96892.19;;;11.61;47.37
10992;BME280;5549;47.028;15.514;2023-04-28T00:24:24;96891.56;;;11.36;49.42
10992;BME280;5549;47.028;15.514;2023-04-28T00:26:52;96896.16;;;11.55;49.16
10992;BME280;5549;47.028;15.514;2023-04-28T00:29:19;96903.41;;;11.63;49.09
10992;BME280;5549;47.028;15.514;2023-04-28T00:31:47;96897.91;;;11.66;47.90
10992;BME280;5549;47.028;15.514;2023-04-28T00:34:14;96894.88;;;11.70;48.33
10992;BME280;5549;47.028;15.514;2023-04-28T00:36:44;96890.91;;;11.76;48.08
10992;BME280;5549;47.028;15.514;2023-04-28T00:39:15;96887.25;;;11.67;47.80
10992;BME280;5549;47.028;15.514;2023-04-28T00:41:45;96879.59;;;11.64;47.75
10992;BME280;5549;47.028;15.514;2023-04-28T00:44:12;96886.78;;;11.62;48.28
10992;BME280;5549;47.028;15.514;2023-04-28T00:46:40;96886.34;;;11.57;48.06
10992;BME280;5549;47.028;15.514;2023-04-28T00:49:10;96883.06;;;11.44;48.20
10992;BME280;5549;47.028;15.514;2023-04-28T00:51:40;96888.19;;;11.45;48.51
10992;BME280;5549;47.028;15.514;2023-04-28T00:54:12;96893.16;;;11.28;47.97
10992;BME280;5549;47.028;15.514;2023-04-28T00:56:44;96892.50;;;11.14;48.11
10992;BME280;5549;47.028;15.514;2023-04-28T00:59:13;96887.66;;;11.31;48.81
10992;BME280;5549;47.028;15.514;2023-04-28T01:01:41;96886.81;;;11.30;47.97
10992;BME280;5549;47.028;15.514;2023-04-28T01:04:09;96880.69;;;11.41;47.78
10992;BME280;5549;47.028;15.514;2023-04-28T01:06:36;96876.13;;;11.43;48.25
10992;BME280;5549;47.028;15.514;2023-04-28T01:09:07;96879.50;;;11.34;48.57
10992;BME280;5549;47.028;15.514;2023-04-28T01:11:34;96877.13;;;11.31;48.29
10992;BME280;5549;47.028;15.514;2023-04-28T01:14:03;96880.34;;;11.34;47.96
10992;BME280;5549;47.028;15.514;2023-04-28T01:16:33;96887.41;;;11.34;48.35
10992;BME280;5549;47.028;15.514;2023-04-28T01:19:02;96884.31;;;11.29;48.39
10992;BME280;5549;47.028;15.514;2023-04-28T01:21:35;96883.34;;;11.30;48.63
10992;BME280;5549;47.028;15.514;2023-04-28T01:24:07;96889.69;;;11.27;48.03
10992;BME280;5549;47.028;15.514;2023-04-28T01:26:38;96875.00;;;11.24;48.05
10992;BME280;5549;47.028;15.514;2023-04-28T01:29:08;96874.03;;;11.25;48.13
10992;BME280;5549;47.028;15.514;2023-04-28T01:31:36;96882.91;;;11.24;47.98
10992;BME280;5549;47.028;15.514;2023-04-28T01:34:03;96878.72;;;11.22;48.78
10992;BME280;5549;47.028;15.514;2023-04-28T01:36:31;96877.31;;;11.18;49.00
10992;BME280;5549;47.028;15.514;2023-04-28T01:38:59;96878.84;;;11.20;48.50
10992;BME280;5549;47.028;15.514;2023-04-28T01:41:31;96882.44;;;11.19;48.92
10992;BME280;5549;47.028;15.514;2023-04-28T01:44:00;96885.44;;;11.15;48.76
10992;BME280;5549;47.028;15.514;2023-04-28T01:46:29;96878.25;;;11.17;49.16
10992;BME280;5549;47.028;15.514;2023-04-28T01:48:56;96879.22;;;11.16;49.07
10992;BME280;5549;47.028;15.514;2023-04-28T01:51:24;96872.91;;;11.07;48.81
10992;BME280;5549;47.028;15.514;2023-04-28T01:53:54;96876.63;;;11.05;49.58
10992;BME280;5549;47.028;15.514;2023-04-28T01:56:23;96873.41;;;11.01;49.07
10992;BME280;5549;47.028;15.514;2023-04-28T01:58:52;96865.31;;;10.93;49.43
10992;BME280;5549;47.028;15.514;2023-04-28T02:01:22;96868.69;;;10.84;49.34
10992;BME280;5549;47.028;15.514;2023-04-28T02:03:52;96869.22;;;10.55;49.83
10992;BME280;5549;47.028;15.514;2023-04-28T02:06:20;96870.63;;;10.59;49.74
10992;BME280;5549;47.028;15.514;2023-04-28T02:08:49;96873.25;;;10.71;49.45
10992;BME280;5549;47.028;15.514;2023-04-28T02:11:17;96863.31;;;10.74;49.87
10992;BME280;5549;47.028;15.514;2023-04-28T02:13:46;96869.41;;;10.75;49.57
10992;BME280;5549;47.028;15.514;2023-04-28T02:16:15;96871.56;;;10.81;49.08
10992;BME280;5549;47.028;15.514;2023-04-28T02:18:43;96880.75;;;10.75;50.16
10992;BME280;5549;47.028;15.514;2023-04-28T02:21:11;96876.81;;;10.70;50.20
10992;BME280;5549;47.028;15.514;2023-04-28T02:23:40;96878.97;;;10.65;50.19
10992;BME280;5549;47.028;15.514;2023-04-28T02:26:07;96877.91;;;10.67;49.92
10992;BME280;5549;47.028;15.514;2023-04-28T02:28:35;96878.75;;;10.68;49.73
10992;BME280;5549;47.028;15.514;2023-04-28T02:31:06;96880.03;;;10.73;49.95
10992;BME280;5549;47.028;15.514;2023-04-28T02:33:37;96888.03;;;10.72;49.74
10992;BME280;5549;47.028;15.514;2023-04-28T02:36:09;96885.41;;;10.72;49.55
10992;BME280;5549;47.028;15.514;2023-04-28T02:38:39;96871.56;;;10.70;50.76
10992;BME280;5549;47.028;15.514;2023-04-28T02:41:07;96877.53;;;10.72;50.33
10992;BME280;5549;47.028;15.514;2023-04-28T02:43:35;96886.41;;;10.48;51.02
10992;BME280;5549;47.028;15.514;2023-04-28T02:46:04;96875.19;;;10.46;50.80
10992;BME280;5549;47.028;15.514;2023-04-28T02:48:32;96878.38;;;10.39;51.55
10992;BME280;5549;47.028;15.514;2023-04-28T02:51:02;96877.44;;;10.28;51.35
10992;BME280;5549;47.028;15.514;2023-04-28T02:53:30;96881.00;;;10.27;51.64
10992;BME280;5549;47.028;15.514;2023-04-28T02:55:57;96888.53;;;10.32;51.49
10992;BME280;5549;47.028;15.514;2023-04-28T02:58:29;96884.94;;;10.33;51.99
10992;BME280;5549;47.028;15.514;2023-04-28T03:00:57;96880.41;;;10.35;51.81
10992;BME280;5549;47.028;15.514;2023-04-28T03:03:26;96879.22;;;10.39;51.04
10992;BME280;5549;47.028;15.514;2023-04-28T03:06:04;96877.53;;;10.38;51.58
10992;BME280;5549;47.028;15.514;2023-04-28T03:08:36;96871.34;;;10.28;51.21
10992;BME280;5549;47.028;15.514;2023-04-28T03:11:04;96872.00;;;10.08;51.33
10992;BME280;5549;47.028;15.514;2023-04-28T03:13:42;96870.47;;;10.05;51.45
10992;BME280;5549;47.028;15.514;2023-04-28T03:16:17;96859.50;;;10.00;51.09
10992;BME280;5549;47.028;15.514;2023-04-28T03:18:54;96852.09;;;10.05;51.18
10992;BME280;5549;47.028;15.514;2023-04-28T03:21:28;96851.03;;;10.08;51.27
10992;BME280;5549;47.028;15.514;2023-04-28T03:24:05;96850.19;;;10.07;51.78
10992;BME280;5549;47.028;15.514;2023-04-28T03:26:36;96850.78;;;10.00;52.41
10992;BME280;5549;47.028;15.514;2023-04-28T03:29:03;96854.00;;;10.03;52.25
10992;BME280;5549;47.028;15.514;2023-04-28T03:31:33;96850.06;;;9.86;52.13
10992;BME280;5549;47.028;15.514;2023-04-28T03:34:00;96849.13;;;9.98;52.18
10992;BME280;5549;47.028;15.514;2023-04-28T03:36:30;96844.94;;;10.07;52.19
10992;BME280;5549;47.028;15.514;2023-04-28T03:38:58;96844.00;;;10.08;52.38
10992;BME280;5549;47.028;15.514;2023-04-28T03:41:26;96847.56;;;10.07;52.03
10992;BME280;5549;47.028;15.514;2023-04-28T03:43:53;96849.13;;;10.10;52.11
10992;BME280;5549;47.028;15.514;2023-04-28T03:46:24;96850.44;;;10.15;51.78
10992;BME280;5549;47.028;15.514;2023-04-28T03:48:51;96851.03;;;10.19;51.49
10992;BME280;5549;47.028;15.514;2023-04-28T03:51:21;96846.53;;;10.21;52.03
10992;BME280;5549;47.028;15.514;2023-04-28T03:53:50;96846.16;;;10.25;51.96
10992;BME280;5549;47.028;15.514;2023-04-28T03:56:20;96850.94;;;10.32;51.12
10992;BME280;5549;47.028;15.514;2023-04-28T03:58:48;96840.19;;;10.35;51.21
10992;BME280;5549;47.028;15.514;2023-04-28T04:01:18;96841.53;;;10.40;51.66
10992;BME280;5549;47.028;15.514;2023-04-28T04:03:47;96847.50;;;10.42;51.86
10992;BME280;5549;47.028;15.514;2023-04-28T04:06:17;96843.91;;;10.43;52.47
10992;BME280;5549;47.028;15.514;2023-04-28T04:08:45;96845.59;;;10.44;52.56
10992;BME280;5549;47.028;15.514;2023-04-28T04:11:14;96848.34;;;10.43;52.54
10992;BME280;5549;47.028;15.514;2023-04-28T04:13:42;96855.59;;;10.39;52.63
10992;BME280;5549;47.028;15.514;2023-04-28T04:16:10;96854.66;;;10.40;52.76
10992;BME280;5549;47.028;15.514;2023-04-28T04:18:37;96856.34;;;10.41;53.55
10992;BME280;5549;47.028;15.514;2023-04-28T04:21:05;96852.75;;;10.42;52.79
10992;BME280;5549;47.028;15.514;2023-04-28T04:23:33;96856.34;;;10.41;53.15
10992;BME280;5549;47.028;15.514;2023-04-28T04:26:03;96858.72;;;10.44;53.21
10992;BME280;5549;47.028;15.514;2023-04-28T04:28:34;96861.34;;;10.44;53.28
10992;BME280;5549;47.028;15.514;2023-04-28T04:31:02;96857.03;;;10.43;53.14
10992;BME280;5549;47.028;15.514;2023-04-28T04:33:29;96857.75;;;10.23;54.68
10992;BME280;5549;47.028;15.514;2023-04-28T04:35:59;96862.88;;;10.24;54.31
10992;BME280;5549;47.028;15.514;2023-04-28T04:38:29;96857.03;;;10.32;54.77
10992;BME280;5549;47.028;15.514;2023-04-28T04:40:59;96861.09;;;10.25;55.52
10992;BME280;5549;47.028;15.514;2023-04-28T04:43:27;96860.97;;;10.26;54.83
10992;BME280;5549;47.028;15.514;2023-04-28T04:45:58;96859.06;;;10.28;55.12
10992;BME280;5549;47.028;15.514;2023-04-28T04:48:26;96855.72;;;10.38;54.64
10992;BME280;5549;47.028;15.514;2023-04-28T04:50:53;96852.97;;;10.28;55.33
10992;BME280;5549;47.028;15.514;2023-04-28T04:53:23;96852.84;;;10.29;55.77
10992;BME280;5549;47.028;15.514;2023-04-28T04:55:51;96840.31;;;10.33;55.21
10992;BME280;5549;47.028;15.514;2023-04-28T04:58:18;96849.63;;;10.37;55.01
10992;BME280;5549;47.028;15.514;2023-04-28T05:00:46;96849.50;;;10.39;55.17
10992;BME280;5549;47.028;15.514;2023-04-28T05:03:15;96846.19;;;10.48;54.89
10992;BME280;5549;47.028;15.514;2023-04-28T05:05:43;96848.69;;;10.49;54.86
10992;BME280;5549;47.028;15.514;2023-04-28T05:08:11;96849.28;;;10.53;54.16
10992;BME280;5549;47.028;15.514;2023-04-28T05:10:39;96839.50;;;10.55;54.73
10992;BME280;5549;47.028;15.514;2023-04-28T05:13:06;96849.88;;;10.56;54.92
10992;BME280;5549;47.028;15.514;2023-04-28T05:15:36;96848.53;;;10.62;54.21
10992;BME280;5549;47.028;15.514;2023-04-28T05:18:06;96847.47;;;10.65;55.11
10992;BME280;5549;47.028;15.514;2023-04-28T05:20:39;96857.13;;;10.64;54.37
10992;BME280;5549;47.028;15.514;2023-04-28T05:23:09;96846.38;;;10.67;54.28
10992;BME280;5549;47.028;15.514;2023-04-28T05:25:36;96846.72;;;10.74;53.18
10992;BME280;5549;47.028;15.514;2023-04-28T05:28:04;96839.31;;;10.79;53.62
10992;BME280;5549;47.028;15.514;2023-04-28T05:30:34;96827.47;;;10.84;54.12
10992;BME280;5549;47.028;15.514;2023-04-28T05:33:01;96829.97;;;10.86;54.64
10992;BME280;5549;47.028;15.514;2023-04-28T05:35:29;96824.22;;;10.92;55.31
10992;BME280;5549;47.028;15.514;2023-04-28T05:37:58;96828.03;;;10.99;55.79
10992;BME280;5549;47.028;15.514;2023-04-28T05:40:26;96832.66;;;11.07;55.53
10992;BME280;5549;47.028;15.514;2023-04-28T05:42:56;96827.97;;;11.10;54.31
10992;BME280;5549;47.028;15.514;2023-04-28T05:45:24;96833.25;;;11.10;53.41
10992;BME280;5549;47.028;15.514;2023-04-28T05:47:54;96825.69;;;11.17;54.26
10992;BME280;5549;47.028;15.514;2023-04-28T05:50:22;96825.31;;;11.21;53.45
10992;BME280;5549;47.028;15.514;2023-04-28T05:52:50;96824.22;;;11.24;54.19
10992;BME280;5549;47.028;15.514;2023-04-28T05:55:18;96825.63;;;11.28;53.61
10992;BME280;5549;47.028;15.514;2023-04-28T05:57:46;96822.22;;;11.16;54.40
10992;BME280;5549;47.028;15.514;2023-04-28T06:00:15;96829.81;;;11.31;53.16
10992;BME280;5549;47.028;15.514;2023-04-28T06:02:42;96823.28;;;11.46;52.01
10992;BME280;5549;47.028;15.514;2023-04-28T06:05:12;96820.59;;;11.57;51.57
10992;BME280;5549;47.028;15.514;2023-04-28T06:07:42;96821.16;;;11.61;52.47
10992;BME280;5549;47.028;15.514;2023-04-28T06:10:10;96825.06;;;11.66;53.30
10992;BME280;5549;47.028;15.514;2023-04-28T06:12:41;96822.50;;;11.76;53.08
10992;BME280;5549;47.028;15.514;2023-04-28T06:15:10;96817.97;;;11.78;52.42
10992;BME280;5549;47.028;15.514;2023-04-28T06:17:40;96815.34;;;11.78;51.56
10992;BME280;5549;47.028;15.514;2023-04-28T06:20:10;96820.78;;;11.86;51.00
10992;BME280;5549;47.028;15.514;2023-04-28T06:22:41;96821.09;;;11.93;50.92
10992;BME280;5549;47.028;15.514;2023-04-28T06:25:08;96829.28;;;12.20;54.95
10992;BME280;5549;47.028;15.514;2023-04-28T06:27:36;96833.25;;;12.45;58.00
10992;BME280;5549;47.028;15.514;2023-04-28T06:30:07;96841.66;;;12.79;60.94
10992;BME280;5549;47.028;15.514;2023-04-28T06:32:34;96836.59;;;13.16;59.50
10992;BME280;5549;47.028;15.514;2023-04-28T06:35:03;96835.78;;;13.54;57.74
10992;BME280;5549;47.028;15.514;2023-04-28T06:37:31;96837.00;;;13.89;55.81
10992;BME280;5549;47.028;15.514;2023-04-28T06:39:59;96832.75;;;14.15;53.95
10992;BME280;5549;47.028;15.514;2023-04-28T06:42:26;96817.66;;;14.44;53.14
10992;BME280;5549;47.028;15.514;2023-04-28T06:44:54;96817.84;;;14.61;51.20
10992;BME280;5549;47.028;15.514;2023-04-28T06:47:25;96811.00;;;14.86;50.46
10992;BME280;5549;47.028;15.514;2023-04-28T06:49:55;96809.13;;;14.96;46.68
10992;BME280;5549;47.028;15.514;2023-04-28T06:52:23;96817.22;;;15.12;49.84
10992;BME280;5549;47.028;15.514;2023-04-28T06:54:55;96814.28;;;15.33;49.53
10992;BME280;5549;47.028;15.514;2023-04-28T06:57:23;96815.47;;;15.56;48.75
10992;BME280;5549;47.028;15.514;2023-04-28T06:59:53;96813.97;;;15.71;48.68
10992;BME280;5549;47.028;15.514;2023-04-28T07:02:20;96811.91;;;15.83;46.68
10992;BME280;5549;47.028;15.514;2023-04-28T07:04:52;96818.66;;;16.03;46.75
10992;BME280;5549;47.028;15.514;2023-04-28T07:07:22;96821.66;;;16.09;44.82
10992;BME280;5549;47.028;15.514;2023-04-28T07:09:50;96813.56;;;16.10;44.27
10992;BME280;5549;47.028;15.514;2023-04-28T07:12:20;96813.97;;;15.71;45.55
10992;BME280;5549;47.028;15.514;2023-04-28T07:14:48;96805.28;;;15.08;44.19
10992;BME280;5549;47.028;15.514;2023-04-28T07:17:19;96805.44;;;15.24;45.33
10992;BME280;5549;47.028;15.514;2023-04-28T07:19:46;96805.25;;;15.44;45.35
10992;BME280;5549;47.028;15.514;2023-04-28T07:22:19;96810.44;;;15.63;46.29
10992;BME280;5549;47.028;15.514;2023-04-28T07:24:47;96809.81;;;15.69;44.65
10992;BME280;5549;47.028;15.514;2023-04-28T07:27:15;96795.81;;;15.77;45.82
10992;BME280;5549;47.028;15.514;2023-04-28T07:29:45;96797.78;;;15.75;44.69
10992;BME280;5549;47.028;15.514;2023-04-28T07:32:15;96796.94;;;15.74;44.16
10992;BME280;5549;47.028;15.514;2023-04-28T07:34:43;96800.06;;;15.69;44.37
10992;BME280;5549;47.028;15.514;2023-04-28T07:37:10;96792.97;;;15.96;43.87
10992;BME280;5549;47.028;15.514;2023-04-28T07:39:39;96789.06;;;16.08;44.21
10992;BME280;5549;47.028;15.514;2023-04-28T07:42:07;96781.84;;;16.26;43.62
10992;BME280;5549;47.028;15.514;2023-04-28T07:44:35;96778.72;;;16.31;43.32
10992;BME280;5549;47.028;15.514;2023-04-28T07:47:05;96778.84;;;16.21;43.83
10992;BME280;5549;47.028;15.514;2023-04-28T07:49:32;96787.16;;;16.26;44.58
10992;BME280;5549;47.028;15.514;2023-04-28T07:52:02;96780.25;;;16.42;44.77
10992;BME280;5549;47.028;15.514;2023-04-28T07:54:30;96780.31;;;16.58;45.02
10992;BME280;5549;47.028;15.514;2023-04-28T07:57:00;96777.91;;;16.73;44.63
10992;BME280;5549;47.028;15.514;2023-04-28T07:59:30;96785.31;;;16.61;43.62
10992;BME280;5549;47.028;15.514;2023-04-28T08:01:57;96779.38;;;16.67;43.66
10992;BME280;5549;47.028;15.514;2023-04-28T08:04:27;96779.31;;;16.51;43.66
10992;BME280;5549;47.028;15.514;2023-04-28T08:06:58;96774.00;;;16.51;43.85
10992;BME280;5549;47.028;15.514;2023-04-28T08:09:26;96772.31;;;16.42;44.68
10992;BME280;5549;47.028;15.514;2023-04-28T08:11:53;96766.03;;;16.43;44.21
10992;BME280;5549;47.028;15.514;2023-04-28T08:14:24;96774.66;;;16.45;44.27
10992;BME280;5549;47.028;15.514;2023-04-28T08:16:52;96785.63;;;16.58;45.30
10992;BME280;5549;47.028;15.514;2023-04-28T08:19:23;96787.44;;;16.57;44.03
10992;BME280;5549;47.028;15.514;2023-04-28T08:21:52;96792.25;;;16.62;43.79
10992;BME280;5549;47.028;15.514;2023-04-28T08:24:20;96791.00;;;16.74;44.18
10992;BME280;5549;47.028;15.514;2023-04-28T08:26:50;96774.28;;;16.74;42.92
10992;BME280;5549;47.028;15.514;2023-04-28T08:29:17;96786.25;;;16.52;43.07
10992;BME280;5549;47.028;15.514;2023-04-28T08:31:46;96779.09;;;16.36;42.43
10992;BME280;5549;47.028;15.514;2023-04-28T08:34:14;96773.22;;;16.24;43.22
10992;BME280;5549;47.028;15.514;2023-04-28T08:36:43;96767.22;;;16.14;43.91
10992;BME280;5549;47.028;15.514;2023-04-28T08:39:11;96770.56;;;15.90;44.58
10992;BME280;5549;47.028;15.514;2023-04-28T08:41:39;96773.50;;;15.79;44.36
10992;BME280;5549;47.028;15.514;2023-04-28T08:44:09;96774.81;;;15.57;44.82
10992;BME280;5549;47.028;15.514;2023-04-28T08:46:40;96777.50;;;15.48;45.25
10992;BME280;5549;47.028;15.514;2023-04-28T08:49:17;96768.81;;;15.37;46.33
10992;BME280;5549;47.028;15.514;2023-04-28T08:51:54;96768.91;;;15.28;46.11
10992;BME280;5549;47.028;15.514;2023-04-28T08:54:23;96765.84;;;15.15;45.98
10992;BME280;5549;47.028;15.514;2023-04-28T08:56:54;96763.41;;;15.03;48.29
10992;BME280;5549;47.028;15.514;2023-04-28T08:59:25;96760.84;;;15.12;47.46
10992;BME280;5549;47.028;15.514;2023-04-28T09:01:55;96766.28;;;15.10;47.11
10992;BME280;5549;47.028;15.514;2023-04-28T09:04:28;96763.56;;;15.20;47.18
10992;BME280;5549;47.028;15.514;2023-04-28T09:06:58;96772.31;;;15.20;47.00
10992;BME280;5549;47.028;15.514;2023-04-28T09:09:29;96776.19;;;15.26;47.69
10992;BME280;5549;47.028;15.514;2023-04-28T09:11:59;96763.94;;;15.25;48.56
10992;BME280;5549;47.028;15.514;2023-04-28T09:14:28;96779.72;;;15.34;48.94
10992;BME280;5549;47.028;15.514;2023-04-28T09:16:56;96782.66;;;15.31;48.18
10992;BME280;5549;47.028;15.514;2023-04-28T09:19:32;96772.69;;;15.25;47.29
10992;BME280;5549;47.028;15.514;2023-04-28T09:22:01;96768.38;;;15.24;46.80
10992;BME280;5549;47.028;15.514;2023-04-28T09:24:31;96773.16;;;15.21;47.70
10992;BME280;5549;47.028;15.514;2023-04-28T09:27:00;96782.38;;;15.17;46.88
10992;BME280;5549;47.028;15.514;2023-04-28T09:29:29;96774.91;;;15.12;46.68
10992;BME280;5549;47.028;15.514;2023-04-28T09:32:13;96784.44;;;15.05;47.95
10992;BME280;5549;47.028;15.514;2023-04-28T09:34:47;96774.59;;;14.97;47.87
10992;BME280;5549;47.028;15.514;2023-04-28T09:37:16;96778.16;;;14.88;48.35
10992;BME280;5549;47.028;15.514;2023-04-28T09:39:48;96770.13;;;14.62;47.79
10992;BME280;5549;47.028;15.514;2023-04-28T09:42:31;96772.59;;;14.36;50.11
10992;BME280;5549;47.028;15.514;2023-04-28T09:45:00;96759.91;;;14.50;48.80
10992;BME280;5549;47.028;15.514;2023-04-28T09:47:29;96758.38;;;14.47;48.72
10992;BME280;5549;47.028;15.514;2023-04-28T09:50:01;96753.03;;;14.57;49.01
10992;BME280;5549;47.028;15.514;2023-04-28T09:52:32;96759.69;;;14.61;49.45
10992;BME280;5549;47.028;15.514;2023-04-28T09:55:02;96754.19;;;14.72;48.28
10992;BME280;5549;47.028;15.514;2023-04-28T09:57:33;96741.69;;;14.47;48.88
10992;BME280;5549;47.028;15.514;2023-04-28T10:00:02;96743.16;;;14.76;49.57
10992;BME280;5549;47.028;15.514;2023-04-28T10:02:33;96741.72;;;14.82;48.65
10992;BME280;5549;47.028;15.514;2023-04-28T10:05:03;96749.28;;;14.77;48.63
10992;BME280;5549;47.028;15.514;2023-04-28T10:07:33;96749.28;;;15.13;47.07
10992;BME280;5549;47.028;15.514;2023-04-28T10:10:01;96744.91;;;15.03;50.05
10992;BME280;5549;47.028;15.514;2023-04-28T10:12:32;96737.50;;;15.07;48.01
10992;BME280;5549;47.028;15.514;2023-04-28T10:15:00;96738.16;;;15.09;47.53
10992;BME280;5549;47.028;15.514;2023-04-28T10:17:29;96727.06;;;14.52;48.38
10992;BME280;5549;47.028;15.514;2023-04-28T10:19:58;96718.69;;;14.57;48.26
10992;BME280;5549;47.028;15.514;2023-04-28T10:22:46;96725.88;;;14.82;48.86
10992;BME280;5549;47.028;15.514;2023-04-28T10:25:26;96721.03;;;14.95;47.96
10992;BME280;5549;47.028;15.514;2023-04-28T10:27:57;96721.06;;;15.21;45.69
10992;BME280;5549;47.028;15.514;2023-04-28T10:30:26;96714.44;;;15.43;46.84
10992;BME280;5549;47.028;15.514;2023-04-28T10:33:22;96718.13;;;15.24;47.47
10992;BME280;5549;47.028;15.514;2023-04-28T10:35:50;96711.97;;;15.41;47.09
10992;BME280;5549;47.028;15.514;2023-04-28T10:38:20;96703.16;;;15.59;47.40
10992;BME280;5549;47.028;15.514;2023-04-28T10:40:48;96688.50;;;15.47;45.70
10992;BME280;5549;47.028;15.514;2023-04-28T10:43:37;96681.59;;;15.71;47.31
10992;BME280;5549;47.028;15.514;2023-04-28T10:46:09;96670.69;;;15.75;46.73
10992;BME280;5549;47.028;15.514;2023-04-28T10:48:56;96676.44;;;16.04;47.78
10992;BME280;5549;47.028;15.514;2023-04-28T10:51:34;96666.22;;;16.17;47.51
10992;BME280;5549;47.028;15.514;2023-04-28T10:54:13;96656.59;;;16.08;46.27
10992;BME280;5549;47.028;15.514;2023-04-28T10:57:18;96657.50;;;15.83;45.11
10992;BME280;5549;47.028;15.514;2023-04-28T10:59:50;96662.44;;;15.78;46.82
10992;BME280;5549;47.028;15.514;2023-04-28T11:02:39;96651.94;;;16.02;47.15
10992;BME280;5549;47.028;15.514;2023-04-28T11:05:17;96651.47;;;16.15;45.30
10992;BME280;5549;47.028;15.514;2023-04-28T11:08:32;96650.38;;;16.33;44.95
10992;BME280;5549;47.028;15.514;2023-04-28T11:11:24;96660.31;;;16.31;46.16
10992;BME280;5549;47.028;15.514;2023-04-28T11:13:53;96653.03;;;16.42;45.88
10992;BME280;5549;47.028;15.514;2023-04-28T11:16:23;96652.66;;;16.28;45.78
10992;BME280;5549;47.028;15.514;2023-04-28T11:18:59;96640.13;;;16.47;44.45
10992;BME280;5549;47.028;15.514;2023-04-28T11:21:31;96637.47;;;16.55;44.38
10992;BME280;5549;47.028;15.514;2023-04-28T11:24:08;96630.91;;;16.83;45.08
10992;BME280;5549;47.028;15.514;2023-04-28T11:26:39;96627.91;;;16.78;45.76
10992;BME280;5549;47.028;15.514;2023-04-28T11:29:10;96620.91;;;16.61;43.81
10992;BME280;5549;47.028;15.514;2023-04-28T11:31:40;96621.28;;;16.74;42.93
10992;BME280;5549;47.028;15.514;2023-04-28T11:34:19;96620.63;;;16.88;44.31
10992;BME280;5549;47.028;15.514;2023-04-28T11:36:49;96617.63;;;17.08;43.67
10992;BME280;5549;47.028;15.514;2023-04-28T11:39:25;96610.00;;;16.96;44.34
10992;BME280;5549;47.028;15.514;2023-04-28T11:41:56;96604.38;;;16.99;44.54
10992;BME280;5549;47.028;15.514;2023-04-28T11:44:28;96613.66;;;16.79;44.03
10992;BME280;5549;47.028;15.514;2023-04-28T11:46:59;96607.03;;;16.83;42.98
10992;BME280;5549;47.028;15.514;2023-04-28T11:49:30;96595.75;;;16.97;46.05
10992;BME280;5549;47.028;15.514;2023-04-28T11:52:04;96589.91;;;17.10;44.25
10992;BME280;5549;47.028;15.514;2023-04-28T11:54:34;96591.09;;;17.08;42.95
10992;BME280;5549;47.028;15.514;2023-04-28T11:57:04;96588.88;;;17.27;42.51
10992;BME280;5549;47.028;15.514;2023-04-28T11:59:36;96586.22;;;17.44;42.65
10992;BME280;5549;47.028;15.514;2023-04-28T12:02:06;96583.25;;;17.39;42.39
10992;BME280;5549;47.028;15.514;2023-04-28T12:04:39;96588.38;;;17.32;43.35
10992;BME280;5549;47.028;15.514;2023-04-28T12:07:10;96580.91;;;17.27;42.89
10992;BME280;5549;47.028;15.514;2023-04-28T12:09:43;96588.19;;;17.50;42.60
10992;BME280;5549;47.028;15.514;2023-04-28T12:12:13;96589.72;;;17.36;43.74
10992;BME280;5549;47.028;15.514;2023-04-28T12:14:56;96576.53;;;17.67;43.52
10992;BME280;5549;47.028;15.514;2023-04-28T12:17:28;96575.84;;;17.73;42.58
10992;BME280;5549;47.028;15.514;2023-04-28T12:19:58;96584.25;;;17.85;41.86
10992;BME280;5549;47.028;15.514;2023-04-28T12:22:27;96575.19;;;18.02;42.69
10992;BME280;5549;47.028;15.514;2023-04-28T12:25:05;96588.88;;;17.91;43.08
10992;BME280;5549;47.028;15.514;2023-04-28T12:27:38;96574.25;;;17.95;42.22
10992;BME280;5549;47.028;15.514;2023-04-28T12:30:31;96571.84;;;18.08;41.90
10992;BME280;5549;47.028;15.514;2023-04-28T12:32:59;96572.25;;;17.97;42.03
10992;BME280;5549;47.028;15.514;2023-04-28T12:35:28;96571.53;;;18.03;42.51
10992;BME280;5549;47.028;15.514;2023-04-28T12:37:58;96569.28;;;17.92;43.42
10992;BME280;5549;47.028;15.514;2023-04-28T12:40:26;96573.19;;;18.04;44.02
10992;BME280;5549;47.028;15.514;2023-04-28T12:42:55;96568.56;;;17.98;44.93
10992;BME280;5549;47.028;15.514;2023-04-28T12:45:25;96577.66;;;17.73;43.43
10992;BME280;5549;47.028;15.514;2023-04-28T12:47:54;96565.38;;;17.72;42.63
10992;BME280;5549;47.028;15.514;2023-04-28T12:50:23;96558.16;;;17.49;43.06
10992;BME280;5549;47.028;15.514;2023-04-28T12:52:54;96561.44;;;17.68;43.31
10992;BME280;5549;47.028;15.514;2023-04-28T12:55:25;96561.94;;;17.55;43.39
10992;BME280;5549;47.028;15.514;2023-04-28T12:57:54;96561.81;;;17.48;45.15
10992;BME280;5549;47.028;15.514;2023-04-28T13:00:24;96545.50;;;17.68;44.13
10992;BME280;5549;47.028;15.514;2023-04-28T13:02:52;96549.63;;;17.70;46.18
10992;BME280;5549;47.028;15.514;2023-04-28T13:05:20;96545.66;;;17.58;46.25
10992;BME280;5549;47.028;15.514;2023-04-28T13:07:48;96538.78;;;17.80;45.73
10992;BME280;5549;47.028;15.514;2023-04-28T13:10:16;96539.50;;;17.74;43.51
10992;BME280;5549;47.028;15.514;2023-04-28T13:12:47;96542.00;;;17.59;43.35
10992;BME280;5549;47.028;15.514;2023-04-28T13:15:16;96538.88;;;17.55;43.59
10992;BME280;5549;47.028;15.514;2023-04-28T13:17:43;96533.06;;;17.60;44.01